Time;durP1;ratioP1;P1;durP2;ratioP2;P2;SDS_P1;SDS_P2;PMS_P1;PMS_P2;Temp;Humidity;BMP_temperature;BMP_pressure;BME280_temperature;BME280_humidity;BME280_pressure;Samples;Min_cycle;Max_cycle;Signal;HPM_P1;HPM_P2
2023/09/26 00:01:53;;;;;;;;;;;;;;;-144.99;100.00;52358.41;5052675;28;19952;-66
2023/09/26 00:04:20;;;;;;;;;;;;;;;-144.99;100.00;52407.31;5056433;28;20241;-66
2023/09/26 00:06:46;;;;;;;;;;;;;;;-144.99;100.00;52378.78;5056779;28;19990;-67
2023/09/26 00:09:13;;;;;;;;;;;;;;;-144.99;100.00;52395.09;5049991;28;20100;-66
2023/09/26 00:11:39;;;;;;;;;;;;;;;-144.99;100.00;52364.53;5051647;28;20033;-65
2023/09/26 00:14:07;;;;;;;;;;;;;;;-144.99;100.00;52415.47;5058387;28;19952;-66
2023/09/26 00:16:34;;;;;;;;;;;;;;;-144.99;100.00;52342.09;5046595;28;19946;-64
2023/09/26 00:19:00;;;;;;;;;;;;;;;-144.99;100.00;52407.31;5049969;28;19961;-65
2023/09/26 00:21:29;;;;;;;;;;;;;;;-144.99;100.00;52386.94;5045987;28;20045;-65
2023/09/26 00:23:56;;;;;;;;;;;;;;;-144.99;100.00;52415.47;5051390;28;19982;-65
2023/09/26 00:26:22;;;;;;;;;;;;;;;-144.99;100.00;52393.06;5054672;28;20440;-65
2023/09/26 00:28:48;;;;;;;;;;;;;;;-144.99;100.00;52407.31;5048687;28;19949;-64
2023/09/26 00:31:17;;;;;;;;;;;;;;;-144.99;100.00;52360.44;5050056;28;19974;-65
2023/09/26 00:33:43;;;;;;;;;;;;;;;-144.99;100.00;52358.41;5053427;28;19944;-64
2023/09/26 00:36:10;;;;;;;;;;;;;;;-144.99;100.00;52352.28;5054617;28;19947;-65
2023/09/26 00:38:37;;;;;;;;;;;;;;;-144.99;100.00;52409.38;5054974;28;19991;-65
2023/09/26 00:41:03;;;;;;;;;;;;;;;-144.99;100.00;52382.88;5049860;28;20001;-67
2023/09/26 00:43:32;;;;;;;;;;;;;;;-144.99;100.00;52366.56;5049700;28;19945;-68
2023/09/26 00:46:00;;;;;;;;;;;;;;;-144.99;100.00;52419.56;5055199;28;19941;-69
2023/09/26 00:48:28;;;;;;;;;;;;;;;-144.99;100.00;52386.94;5048860;28;20004;-68
2023/09/26 00:50:55;;;;;;;;;;;;;;;-144.99;100.00;52338.03;5047056;28;19961;-67
2023/09/26 00:53:23;;;;;;;;;;;;;;;-144.99;100.00;52384.91;5048876;28;20029;-68
2023/09/26 00:55:50;;;;;;;;;;;;;;;-144.99;100.00;52388.97;5051129;28;19994;-68
2023/09/26 00:58:17;;;;;;;;;;;;;;;-144.99;100.00;52366.56;5051526;28;20451;-68
2023/09/26 01:00:44;;;;;;;;;;;;;;;-144.99;100.00;52374.72;5053002;28;19989;-68
2023/09/26 01:03:10;;;;;;;;;;;;;;;-144.99;100.00;52370.63;5048628;28;19987;-67
2023/09/26 01:05:38;;;;;;;;;;;;;;;-144.99;100.00;52395.09;5064232;28;20002;-68
2023/09/26 01:08:05;;;;;;;;;;;;;;;-144.99;100.00;52386.94;5049417;28;19955;-68
2023/09/26 01:10:32;;;;;;;;;;;;;;;-144.99;100.00;52395.09;5047377;28;19991;-67
2023/09/26 01:12:59;;;;;;;;;;;;;;;-144.99;100.00;52419.56;5057811;28;19983;-66
2023/09/26 01:15:31;;;;;;;;;;;;;;;-144.99;100.00;52386.94;5060193;28;19968;-66
2023/09/26 01:17:58;;;;;;;;;;;;;;;-144.99;100.00;52399.19;5058299;28;20438;-66
2023/09/26 01:20:25;;;;;;;;;;;;;;;-144.99;100.00;52378.78;5050790;28;20240;-67
2023/09/26 01:22:53;;;;;;;;;;;;;;;-144.99;100.00;52362.50;5060727;28;20410;-67
2023/09/26 01:25:21;;;;;;;;;;;;;;;-144.99;100.00;52370.63;5039637;28;19969;-67
2023/09/26 01:27:48;;;;;;;;;;;;;;;-144.99;100.00;52368.59;5041369;28;20009;-67
2023/09/26 01:30:15;;;;;;;;;;;;;;;-144.99;100.00;52399.19;5052926;28;19998;-66
2023/09/26 01:32:41;;;;;;;;;;;;;;;-144.99;100.00;52342.09;5052835;28;19942;-67
2023/09/26 01:35:08;;;;;;;;;;;;;;;-144.99;100.00;52391.03;5061437;28;19944;-66
2023/09/26 01:37:34;;;;;;;;;;;;;;;-144.99;100.00;52411.41;5058713;28;20041;-67
2023/09/26 01:40:02;;;;;;;;;;;;;;;-144.99;100.00;52395.09;5054496;28;20422;-63
2023/09/26 01:42:30;;;;;;;;;;;;;;;-144.99;100.00;52350.25;5055986;28;20034;-63
2023/09/26 01:44:57;;;;;;;;;;;;;;;-144.99;100.00;52370.63;5054382;28;20374;-62
2023/09/26 01:47:31;;;;;;;;;;;;;;;-144.99;100.00;52382.88;5057408;28;19996;-62
2023/09/26 01:49:58;;;;;;;;;;;;;;;-144.99;100.00;52360.44;5045082;28;20087;-62
2023/09/26 01:52:25;;;;;;;;;;;;;;;-144.99;100.00;52374.72;5049989;28;20552;-62
2023/09/26 01:54:51;;;;;;;;;;;;;;;-144.99;100.00;52399.19;5051870;28;20383;-61
2023/09/26 01:57:17;;;;;;;;;;;;;;;-144.99;100.00;52386.94;5054287;28;19945;-61
2023/09/26 01:59:45;;;;;;;;;;;;;;;-144.99;100.00;52391.03;5042320;28;20431;-62
2023/09/26 02:02:12;;;;;;;;;;;;;;;-144.99;100.00;52388.97;5051206;28;20043;-62
2023/09/26 02:04:38;;;;;;;;;;;;;;;-144.99;100.00;52415.47;5051714;28;20455;-61
2023/09/26 02:07:05;;;;;;;;;;;;;;;-144.99;100.00;52358.41;5058560;28;20023;-62
2023/09/26 02:09:31;;;;;;;;;;;;;;;-144.99;100.00;52399.19;5051800;28;20390;-62
2023/09/26 02:11:58;;;;;;;;;;;;;;;-144.99;100.00;52386.94;5055735;28;19946;-61
2023/09/26 02:14:24;;;;;;;;;;;;;;;-144.99;100.00;52364.53;5051430;28;19941;-62
2023/09/26 02:16:52;;;;;;;;;;;;;;;-144.99;100.00;52415.47;5051574;28;20045;-64
2023/09/26 02:19:18;;;;;;;;;;;;;;;-144.99;100.00;52368.59;5042484;28;19973;-61
2023/09/26 02:21:45;;;;;;;;;;;;;;;-144.99;100.00;52391.03;5054132;28;20421;-61
2023/09/26 02:24:11;;;;;;;;;;;;;;;-144.99;100.00;52403.25;5054015;28;19942;-61
2023/09/26 02:26:38;;;;;;;;;;;;;;;-144.99;100.00;52435.88;5045941;28;20379;-61
2023/09/26 02:29:04;;;;;;;;;;;;;;;-144.99;100.00;52368.59;5055161;28;20328;-61
2023/09/26 02:31:31;;;;;;;;;;;;;;;-144.99;100.00;52378.78;5055453;28;20051;-61
2023/09/26 02:33:59;;;;;;;;;;;;;;;-144.99;100.00;52374.72;5055827;28;20023;-61
2023/09/26 02:36:25;;;;;;;;;;;;;;;-144.99;100.00;52393.06;5058376;28;19988;-63
2023/09/26 02:38:51;;;;;;;;;;;;;;;-144.99;100.00;52382.88;5052033;28;20049;-63
2023/09/26 02:41:18;;;;;;;;;;;;;;;-144.99;100.00;52403.25;5047445;28;20421;-63
2023/09/26 02:43:44;;;;;;;;;;;;;;;-144.99;100.00;52376.75;5059071;28;20366;-64
2023/09/26 02:46:11;;;;;;;;;;;;;;;-144.99;100.00;52368.59;5057269;28;20564;-63
2023/09/26 02:48:37;;;;;;;;;;;;;;;-144.99;100.00;52403.25;5046095;28;20040;-63
2023/09/26 02:51:05;;;;;;;;;;;;;;;-144.99;100.00;52350.25;5056853;28;20065;-63
2023/09/26 02:53:32;;;;;;;;;;;;;;;-144.99;100.00;52395.09;5054095;28;19980;-59
2023/09/26 02:55:58;;;;;;;;;;;;;;;-144.99;100.00;52348.22;5058735;28;20409;-66
2023/09/26 02:58:25;;;;;;;;;;;;;;;-144.99;100.00;52384.91;5053089;28;19958;-66
2023/09/26 03:00:51;;;;;;;;;;;;;;;-144.99;100.00;52370.63;5045748;28;20442;-64
2023/09/26 03:03:18;;;;;;;;;;;;;;;-144.99;100.00;52366.56;5052600;28;20014;-62
2023/09/26 03:05:49;;;;;;;;;;;;;;;-144.99;100.00;52407.31;5057256;28;19942;-62
2023/09/26 03:08:16;;;;;;;;;;;;;;;-144.99;100.00;52368.59;5056908;28;19951;-62
2023/09/26 03:10:43;;;;;;;;;;;;;;;-144.99;100.00;52425.66;5049854;28;19957;-62
2023/09/26 03:13:09;;;;;;;;;;;;;;;-144.99;100.00;52391.03;5054391;28;19954;-65
2023/09/26 03:15:36;;;;;;;;;;;;;;;-144.99;100.00;52397.13;5047658;28;19949;-62
2023/09/26 03:18:02;;;;;;;;;;;;;;;-144.99;100.00;52362.50;5054474;28;20073;-62
2023/09/26 03:20:29;;;;;;;;;;;;;;;-144.99;100.00;52382.88;5042992;28;20001;-62
2023/09/26 03:22:55;;;;;;;;;;;;;;;-144.99;100.00;52354.34;5058729;28;20037;-62
2023/09/26 03:25:23;;;;;;;;;;;;;;;-144.99;100.00;52372.69;5055890;28;19979;-64
2023/09/26 03:27:51;;;;;;;;;;;;;;;-144.99;100.00;52344.16;5052252;28;20005;-64
2023/09/26 03:30:17;;;;;;;;;;;;;;;-144.99;100.00;52368.59;5034827;28;20048;-64
2023/09/26 03:32:44;;;;;;;;;;;;;;;-144.99;100.00;52378.78;5053218;28;19982;-64
2023/09/26 03:35:10;;;;;;;;;;;;;;;-144.99;100.00;52360.44;5043557;28;20029;-65
2023/09/26 03:37:37;;;;;;;;;;;;;;;-144.99;100.00;52368.59;5053120;28;19952;-66
2023/09/26 03:40:04;;;;;;;;;;;;;;;-144.99;100.00;52374.72;5051212;28;20418;-66
2023/09/26 03:42:32;;;;;;;;;;;;;;;-144.99;100.00;52382.88;5058095;28;19987;-66
2023/09/26 03:44:59;;;;;;;;;;;;;;;-144.99;100.00;52393.06;5054926;28;20522;-67
2023/09/26 03:47:25;;;;;;;;;;;;;;;-144.99;100.00;52399.19;5048678;28;19949;-67
2023/09/26 03:49:53;;;;;;;;;;;;;;;-144.99;100.00;52358.41;5052497;28;19997;-65
2023/09/26 03:52:19;;;;;;;;;;;;;;;-144.99;100.00;52386.94;5045541;28;19956;-66
2023/09/26 03:54:46;;;;;;;;;;;;;;;-144.99;100.00;52409.38;5054707;28;20036;-66
2023/09/26 03:57:12;;;;;;;;;;;;;;;-144.99;100.00;52391.03;5049189;28;19984;-64
2023/09/26 03:59:40;;;;;;;;;;;;;;;-144.99;100.00;52374.72;5044117;28;20482;-64
2023/09/26 04:02:07;;;;;;;;;;;;;;;-144.99;100.00;52391.03;5044161;28;20057;-61
2023/09/26 04:04:34;;;;;;;;;;;;;;;-144.99;100.00;52423.63;5057147;28;20332;-61
2023/09/26 04:07:03;;;;;;;;;;;;;;;-144.99;100.00;52391.03;5046669;28;19944;-63
2023/09/26 04:09:30;;;;;;;;;;;;;;;-144.99;100.00;52391.03;5051056;28;20334;-63
2023/09/26 04:11:56;;;;;;;;;;;;;;;-144.99;100.00;52374.72;5049466;28;19948;-62
2023/09/26 04:14:23;;;;;;;;;;;;;;;-144.99;100.00;52388.97;5041464;28;20371;-62
2023/09/26 04:16:51;;;;;;;;;;;;;;;-144.99;100.00;52391.03;5049199;28;19944;-62
2023/09/26 04:19:18;;;;;;;;;;;;;;;-144.99;100.00;52370.63;5042079;28;20016;-62
2023/09/26 04:21:44;;;;;;;;;;;;;;;-144.99;100.00;52399.19;5053028;28;19965;-62
2023/09/26 04:24:11;;;;;;;;;;;;;;;-144.99;100.00;52378.78;5051421;28;19946;-62
2023/09/26 04:26:37;;;;;;;;;;;;;;;-144.99;100.00;52366.56;5055395;28;20345;-61
2023/09/26 04:29:05;;;;;;;;;;;;;;;-144.99;100.00;52391.03;5037956;28;20000;-61
2023/09/26 04:31:31;;;;;;;;;;;;;;;-144.99;100.00;52370.63;5055170;28;19948;-62
2023/09/26 04:33:59;;;;;;;;;;;;;;;-144.99;100.00;52382.88;5048291;28;19948;-61
2023/09/26 04:36:26;;;;;;;;;;;;;;;-144.99;100.00;52388.97;5044260;28;20480;-65
2023/09/26 04:38:52;;;;;;;;;;;;;;;-144.99;100.00;52403.25;5054789;28;20260;-65
2023/09/26 04:41:19;;;;;;;;;;;;;;;-144.99;100.00;52395.09;5036376;28;19998;-66
2023/09/26 04:43:45;;;;;;;;;;;;;;;-144.99;100.00;52386.94;5054984;28;19967;-62
2023/09/26 04:46:12;;;;;;;;;;;;;;;-144.99;100.00;52397.13;5050529;28;19996;-62
2023/09/26 04:48:39;;;;;;;;;;;;;;;-144.99;100.00;52366.56;5049400;28;19942;-62
2023/09/26 04:51:08;;;;;;;;;;;;;;;-144.99;100.00;52395.09;5052491;28;20315;-62
2023/09/26 04:53:35;;;;;;;;;;;;;;;-144.99;100.00;52346.19;5050492;28;19954;-63
2023/09/26 04:56:01;;;;;;;;;;;;;;;-144.99;100.00;52366.56;5051447;28;19994;-62
2023/09/26 04:58:29;;;;;;;;;;;;;;;-144.99;100.00;52413.44;5051026;28;19992;-62
2023/09/26 05:00:55;;;;;;;;;;;;;;;-144.99;100.00;52386.94;5047911;28;20059;-62
2023/09/26 05:03:22;;;;;;;;;;;;;;;-144.99;100.00;52362.50;5054292;28;20031;-62
2023/09/26 05:05:48;;;;;;;;;;;;;;;-144.99;100.00;52358.41;5053866;28;20344;-63
2023/09/26 05:08:16;;;;;;;;;;;;;;;-144.99;100.00;52372.69;5055290;28;19987;-63
2023/09/26 05:10:42;;;;;;;;;;;;;;;-144.99;100.00;52376.75;5046946;28;19991;-63
2023/09/26 05:13:09;;;;;;;;;;;;;;;-144.99;100.00;52391.03;5049950;28;19940;-63
2023/09/26 05:15:36;;;;;;;;;;;;;;;-144.99;100.00;52366.56;5057575;28;19991;-63
2023/09/26 05:18:03;;;;;;;;;;;;;;;-144.99;100.00;52399.19;5054711;28;19967;-63
2023/09/26 05:20:30;;;;;;;;;;;;;;;-144.99;100.00;52346.19;5048455;28;20496;-62
2023/09/26 05:22:56;;;;;;;;;;;;;;;-144.99;100.00;52391.03;5058392;28;19999;-64
2023/09/26 05:25:24;;;;;;;;;;;;;;;-144.99;100.00;52386.94;5052572;28;20039;-62
2023/09/26 05:27:51;;;;;;;;;;;;;;;-144.99;100.00;52366.56;5051447;28;19992;-63
2023/09/26 05:30:17;;;;;;;;;;;;;;;-144.99;100.00;52386.94;5056034;28;20002;-63
2023/09/26 05:32:44;;;;;;;;;;;;;;;-144.99;100.00;52388.97;5059426;22;20051;-70
2023/09/26 05:35:12;;;;;;;;;;;;;;;-144.99;100.00;52393.06;5048756;28;19984;-69
2023/09/26 05:37:39;;;;;;;;;;;;;;;-144.99;100.00;52378.78;5050287;28;20018;-68
2023/09/26 05:40:07;;;;;;;;;;;;;;;-144.99;100.00;52370.63;5049712;28;19983;-69
2023/09/26 05:42:35;;;;;;;;;;;;;;;-144.99;100.00;52348.22;5049880;28;20058;-69
2023/09/26 05:45:02;;;;;;;;;;;;;;;-144.99;100.00;52354.34;5052801;28;19961;-70
2023/09/26 05:47:29;;;;;;;;;;;;;;;-144.99;100.00;52348.22;5044974;28;19966;-70
2023/09/26 05:49:55;;;;;;;;;;;;;;;-144.99;100.00;52374.72;5050717;28;19968;-70
2023/09/26 05:52:22;;;;;;;;;;;;;;;-144.99;100.00;52350.25;5046326;28;19971;-69
2023/09/26 05:54:48;;;;;;;;;;;;;;;-144.99;100.00;52366.56;5051575;28;19991;-70
2023/09/26 05:57:15;;;;;;;;;;;;;;;-144.99;100.00;52358.41;5047091;28;19992;-69
2023/09/26 05:59:43;;;;;;;;;;;;;;;-144.99;100.00;52386.94;5068662;28;20011;-69
2023/09/26 06:02:11;;;;;;;;;;;;;;;-144.99;100.00;52354.34;5063786;28;19943;-73
2023/09/26 06:04:40;;;;;;;;;;;;;;;-144.99;100.00;52346.19;5074367;28;19968;-73
2023/09/26 06:07:07;;;;;;;;;;;;;;;-144.99;100.00;52354.34;5066157;28;19952;-75
2023/09/26 06:09:33;;;;;;;;;;;;;;;-144.99;100.00;52342.09;5071070;28;19962;-73
2023/09/26 06:12:00;;;;;;;;;;;;;;;-144.99;100.00;52346.19;5058678;28;19966;-75
2023/09/26 06:14:26;;;;;;;;;;;;;;;-144.99;100.00;52321.72;5059841;28;19964;-73
2023/09/26 06:16:54;;;;;;;;;;;;;;;-144.99;100.00;52329.88;5064571;28;19937;-72
2023/09/26 06:19:21;;;;;;;;;;;;;;;-144.99;100.00;52350.25;5060030;28;19985;-72
2023/09/26 06:21:47;;;;;;;;;;;;;;;-144.99;100.00;52354.34;5045713;28;19959;-72
2023/09/26 06:24:14;;;;;;;;;;;;;;;-144.99;100.00;52321.72;5050284;28;20361;-73
2023/09/26 06:26:40;;;;;;;;;;;;;;;-144.99;100.00;52338.03;5048077;28;20523;-72
2023/09/26 06:29:07;;;;;;;;;;;;;;;-144.99;100.00;52368.59;5049474;28;19965;-72
2023/09/26 06:31:33;;;;;;;;;;;;;;;-144.99;100.00;52348.22;5046466;28;20437;-72
2023/09/26 06:34:01;;;;;;;;;;;;;;;-144.99;100.00;52342.09;5051790;28;19946;-74
2023/09/26 06:36:30;;;;;;;;;;;;;;;-144.99;100.00;52317.66;5053237;28;19942;-72
2023/09/26 06:38:57;;;;;;;;;;;;;;;-144.99;100.00;52360.44;5049331;28;19944;-72
2023/09/26 06:41:23;;;;;;;;;;;;;;;-144.99;100.00;52354.34;5064681;28;19982;-76
2023/09/26 06:43:50;;;;;;;;;;;;;;;-144.99;100.00;52336.00;5057607;28;19945;-74
2023/09/26 06:46:16;;;;;;;;;;;;;;;-144.99;100.00;52338.03;5051053;28;19976;-73
2023/09/26 06:48:43;;;;;;;;;;;;;;;-144.99;100.00;52338.03;5055620;28;20471;-73
2023/09/26 06:51:11;;;;;;;;;;;;;;;-144.99;100.00;52354.34;5050831;28;20083;-73
2023/09/26 06:53:37;;;;;;;;;;;;;;;-144.99;100.00;52356.38;5050343;28;19950;-71
2023/09/26 06:56:05;;;;;;;;;;;;;;;-144.99;100.00;52301.34;5054109;28;20064;-75
2023/09/26 06:58:32;;;;;;;;;;;;;;;-144.99;99.68;52297.25;5041410;28;19951;-72
2023/09/26 07:00:58;;;;;;;;;;;;;;;-144.99;97.83;52305.41;5046040;28;20005;-72
2023/09/26 07:03:27;;;;;;;;;;;;;;;-144.99;97.05;52321.72;5045676;28;19998;-73
2023/09/26 07:05:53;;;;;;;;;;;;;;;-144.99;96.35;52327.84;5046606;28;20042;-73
2023/09/26 07:08:21;;;;;;;;;;;;;;;-144.99;96.10;52358.41;5048925;28;19985;-73
2023/09/26 07:10:49;;;;;;;;;;;;;;;-144.99;96.47;52293.19;5052796;28;20485;-73
2023/09/26 07:13:15;;;;;;;;;;;;;;;-144.99;96.56;52297.25;5052317;28;20334;-75
2023/09/26 07:15:42;;;;;;;;;;;;;;;-144.99;96.96;52338.03;5061823;28;19946;-75
2023/09/26 07:18:10;;;;;;;;;;;;;;;-144.99;97.08;52321.72;5066399;28;19946;-75
2023/09/26 07:20:36;;;;;;;;;;;;;;;-144.99;96.62;52280.97;5068624;28;19950;-75
2023/09/26 07:23:03;;;;;;;;;;;;;;;-144.99;96.78;52366.56;5073714;28;19995;-75
2023/09/26 07:25:31;;;;;;;;;;;;;;;-144.99;96.77;52293.19;5069113;28;19942;-75
2023/09/26 07:27:58;;;;;;;;;;;;;;;-144.99;96.07;52301.34;5060855;28;20251;-73
2023/09/26 07:30:25;;;;;;;;;;;;;;;-144.99;96.31;52321.72;5067030;28;19961;-72
2023/09/26 07:32:51;;;;;;;;;;;;;;;-144.99;97.18;52325.81;5057751;28;20129;-70
2023/09/26 07:35:18;;;;;;;;;;;;;;;-144.99;96.91;52301.34;5055412;28;19988;-69
2023/09/26 07:37:45;;;;;;;;;;;;;;;-144.99;96.52;52321.72;5057523;28;19943;-70
2023/09/26 07:40:11;;;;;;;;;;;;;;;-144.99;96.03;52329.88;5050700;28;19971;-70
2023/09/26 07:42:40;;;;;;;;;;;;;;;-144.99;95.77;52317.66;5054395;28;20008;-68
2023/09/26 07:45:07;;;;;;;;;;;;;;;-144.99;95.58;52276.88;5056102;28;20340;-68
2023/09/26 07:47:33;;;;;;;;;;;;;;;-144.99;93.16;52321.72;5053926;28;19993;-67
2023/09/26 07:50:01;;;;;;;;;;;;;;;-144.99;92.28;52260.56;5053714;28;20524;-67
2023/09/26 07:52:28;;;;;;;;;;;;;;;-144.99;90.91;52309.50;5053173;28;19941;-66
2023/09/26 07:54:55;;;;;;;;;;;;;;;-144.99;89.80;52280.97;5053356;28;19944;-66
2023/09/26 07:57:21;;;;;;;;;;;;;;;-144.99;88.48;52272.81;5054782;28;19990;-58
2023/09/26 07:59:49;;;;;;;;;;;;;;;-144.99;86.76;52287.06;5052496;28;20007;-64
2023/09/26 08:02:16;;;;;;;;;;;;;;;-144.99;85.84;52285.03;5046845;28;20008;-63
2023/09/26 08:04:42;;;;;;;;;;;;;;;-144.99;85.51;52272.81;5053788;28;19967;-64
2023/09/26 08:07:09;;;;;;;;;;;;;;;-144.99;83.60;52256.50;5052021;28;19946;-64
2023/09/26 08:09:35;;;;;;;;;;;;;;;-144.99;82.85;52285.03;5042130;28;19956;-64
2023/09/26 08:12:02;;;;;;;;;;;;;;;-144.99;81.63;52244.28;5053475;28;20416;-63
2023/09/26 08:14:29;;;;;;;;;;;;;;;-144.99;80.55;52276.88;5051165;28;19941;-64
2023/09/26 08:16:56;;;;;;;;;;;;;;;-144.99;79.62;52236.13;5045367;28;20029;-65
2023/09/26 08:19:23;;;;;;;;;;;;;;;-144.99;79.42;52256.50;5047335;28;19962;-65
2023/09/26 08:21:49;;;;;;;;;;;;;;;-144.99;77.77;52242.22;5051660;28;19957;-65
2023/09/26 08:24:16;;;;;;;;;;;;;;;-144.99;77.63;52242.22;5049837;28;20436;-65
2023/09/26 08:26:42;;;;;;;;;;;;;;;-144.99;77.32;52244.28;5052658;28;20351;-65
2023/09/26 08:29:09;;;;;;;;;;;;;;;-144.99;76.89;52250.38;5043687;28;19960;-64
2023/09/26 08:31:36;;;;;;;;;;;;;;;-144.99;75.85;52199.44;5050014;28;19995;-65
2023/09/26 08:34:04;;;;;;;;;;;;;;;-144.99;75.63;52256.50;5048560;28;20165;-66
2023/09/26 08:36:31;;;;;;;;;;;;;;;-144.99;75.35;52232.03;5050402;28;20144;-66
2023/09/26 08:38:59;;;;;;;;;;;;;;;-144.99;74.15;52232.03;5047898;28;19948;-67
2023/09/26 08:41:26;;;;;;;;;;;;;;;-144.99;74.39;52258.53;5048169;28;19941;-66
2023/09/26 08:43:53;;;;;;;;;;;;;;;-144.99;73.84;52240.19;5040137;28;19970;-66
2023/09/26 08:46:20;;;;;;;;;;;;;;;-144.99;74.66;52234.09;5049963;28;20018;-65
2023/09/26 08:48:47;;;;;;;;;;;;;;;-144.99;74.71;52309.50;5044700;28;19943;-65
2023/09/26 08:51:15;;;;;;;;;;;;;;;-144.99;73.77;52244.28;5048351;28;19944;-65
2023/09/26 08:53:41;;;;;;;;;;;;;;;-144.99;72.74;52244.28;5048506;28;20000;-65
2023/09/26 08:56:08;;;;;;;;;;;;;;;-144.99;72.17;52221.84;5043444;28;19936;-65
2023/09/26 08:58:36;;;;;;;;;;;;;;;-144.99;71.72;52256.50;5047131;28;19952;-65
2023/09/26 09:01:02;;;;;;;;;;;;;;;-144.99;71.66;52227.97;5047132;28;19960;-65
2023/09/26 09:03:29;;;;;;;;;;;;;;;-144.99;71.50;52211.66;5046906;28;19957;-66
2023/09/26 09:05:56;;;;;;;;;;;;;;;-144.99;71.53;52227.97;5041613;28;20034;-66
2023/09/26 09:08:23;;;;;;;;;;;;;;;-144.99;70.30;52244.28;5044925;28;20321;-66
2023/09/26 09:10:50;;;;;;;;;;;;;;;-144.99;69.25;52250.38;5049174;28;19965;-69
2023/09/26 09:13:26;;;;;;;;;;;;;;;-144.99;69.29;52162.75;5048779;28;20366;-69
2023/09/26 09:15:54;;;;;;;;;;;;;;;-144.99;68.63;52244.28;5047261;28;19981;-69
2023/09/26 09:18:30;;;;;;;;;;;;;;;-144.99;68.60;52227.97;5046157;28;19943;-69
2023/09/26 09:20:57;;;;;;;;;;;;;;;-144.99;67.71;52211.66;5043144;28;19966;-68
2023/09/26 09:23:25;;;;;;;;;;;;;;;-144.99;66.78;52187.19;5048877;28;20391;-68
2023/09/26 09:25:51;;;;;;;;;;;;;;;-144.99;66.57;52223.88;5048146;28;19945;-68
2023/09/26 09:28:19;;;;;;;;;;;;;;;-144.99;66.26;52227.97;5051151;28;20394;-68
2023/09/26 09:30:45;;;;;;;;;;;;;;;-144.99;67.18;52191.28;5051351;28;19968;-70
2023/09/26 09:33:13;;;;;;;;;;;;;;;-144.99;65.96;52207.59;5049272;28;20400;-69
2023/09/26 09:35:40;;;;;;;;;;;;;;;-144.99;66.38;52209.63;5045019;28;19946;-69
2023/09/26 09:38:08;;;;;;;;;;;;;;;-144.99;66.64;52227.97;5041724;28;19949;-69
2023/09/26 09:40:36;;;;;;;;;;;;;;;-144.99;66.50;52215.75;5050927;28;19965;-68
2023/09/26 09:43:03;;;;;;;;;;;;;;;-144.99;65.83;52187.19;5049549;28;20495;-69
2023/09/26 09:45:30;;;;;;;;;;;;;;;-144.99;65.71;52199.44;5053092;28;20420;-68
2023/09/26 09:47:57;;;;;;;;;;;;;;;-144.99;66.00;52183.13;5044842;28;20065;-68
2023/09/26 09:50:26;;;;;;;;;;;;;;;-144.99;66.17;52215.75;5045722;28;20362;-68
2023/09/26 09:52:56;;;;;;;;;;;;;;;-144.99;66.16;52203.50;5052828;28;19945;-69
2023/09/26 09:55:25;;;;;;;;;;;;;;;-144.99;65.50;52179.06;5050919;28;20395;-69
2023/09/26 09:57:53;;;;;;;;;;;;;;;-144.99;64.85;52179.06;5045742;28;19956;-69
2023/09/26 10:00:24;;;;;;;;;;;;;;;-144.99;63.98;52115.88;5046214;28;20031;-69
2023/09/26 10:02:51;;;;;;;;;;;;;;;-144.99;62.26;52140.31;5052464;28;19956;-69
2023/09/26 10:05:19;;;;;;;;;;;;;;;-144.99;60.82;52101.59;5050790;28;20410;-69
2023/09/26 10:07:47;;;;;;;;;;;;;;;-144.99;59.72;52142.38;5052994;28;19946;-69
2023/09/26 10:10:15;;;;;;;;;;;;;;;-144.99;59.21;52119.94;5052346;28;20006;-69
2023/09/26 10:12:42;;;;;;;;;;;;;;;-144.99;59.37;52140.31;5052475;28;19947;-69
2023/09/26 10:15:11;;;;;;;;;;;;;;;-144.99;59.17;52091.41;5048311;28;19985;-69
2023/09/26 10:17:39;;;;;;;;;;;;;;;-144.99;59.15;52134.22;5045662;28;20042;-70
2023/09/26 10:20:07;;;;;;;;;;;;;;;-144.99;58.59;52097.53;5043169;28;19962;-69
2023/09/26 10:22:35;;;;;;;;;;;;;;;-144.99;57.91;52081.22;5049136;28;20016;-69
2023/09/26 10:25:02;;;;;;;;;;;;;;;-144.99;57.11;52073.06;5050699;28;19938;-69
2023/09/26 10:27:39;;;;;;;;;;;;;;;-144.99;56.39;52093.44;5051651;28;19946;-69
2023/09/26 10:30:10;;;;;;;;;;;;;;;-144.99;56.83;52097.53;5053251;28;20081;-68
2023/09/26 10:32:39;;;;;;;;;;;;;;;-144.99;57.12;52089.38;5051206;28;19951;-68
2023/09/26 10:35:20;;;;;;;;;;;;;;;-144.99;56.69;52058.81;5045133;28;19987;-69
2023/09/26 10:37:49;;;;;;;;;;;;;;;-144.99;56.11;52044.53;5052053;28;19949;-69
2023/09/26 10:40:16;;;;;;;;;;;;;;;-144.99;55.97;52060.84;5054596;28;20038;-69
2023/09/26 10:42:43;;;;;;;;;;;;;;;-144.99;56.21;52079.19;5052620;28;20000;-69
2023/09/26 10:45:11;;;;;;;;;;;;;;;-144.99;55.64;52034.34;5053542;28;19941;-69
2023/09/26 10:47:40;;;;;;;;;;;;;;;-144.99;55.36;52026.19;5044699;28;20000;-69
2023/09/26 10:50:08;;;;;;;;;;;;;;;-144.99;54.77;52040.47;5050992;28;19960;-68
2023/09/26 10:52:34;;;;;;;;;;;;;;;-144.99;55.11;52052.69;5051225;28;19945;-69
2023/09/26 10:55:01;;;;;;;;;;;;;;;-144.99;55.14;52016.00;5051781;28;20007;-69
2023/09/26 10:57:27;;;;;;;;;;;;;;;-144.99;55.02;52052.69;5050994;28;20033;-69
2023/09/26 10:59:54;;;;;;;;;;;;;;;-144.99;55.04;52069.00;5048435;28;20423;-68
2023/09/26 11:02:22;;;;;;;;;;;;;;;-144.99;54.97;52044.53;5046363;28;19972;-68
2023/09/26 11:04:50;;;;;;;;;;;;;;;-144.99;54.56;52040.47;5043823;28;20432;-68
2023/09/26 11:07:16;;;;;;;;;;;;;;;-144.99;54.79;52016.00;5050476;28;20002;-70
2023/09/26 11:09:44;;;;;;;;;;;;;;;-144.99;54.82;52052.69;5050864;28;19955;-69
2023/09/26 11:12:12;;;;;;;;;;;;;;;-144.99;55.15;52113.84;5044219;28;20271;-66
2023/09/26 11:14:38;;;;;;;;;;;;;;;-144.99;56.12;52060.84;5051047;28;19987;-64
2023/09/26 11:17:05;;;;;;;;;;;;;;;-144.99;56.12;52132.19;5048839;28;19995;-70
2023/09/26 11:19:34;;;;;;;;;;;;;;;-144.99;57.96;52150.53;5056254;28;20020;-71
2023/09/26 11:22:02;;;;;;;;;;;;;;;-144.99;58.38;52162.75;5062529;28;19952;-69
2023/09/26 11:24:30;;;;;;;;;;;;;;;-144.99;58.09;52166.81;5054272;28;20007;-67
2023/09/26 11:26:58;;;;;;;;;;;;;;;-144.99;58.75;52179.06;5050372;28;19970;-69
2023/09/26 11:29:25;;;;;;;;;;;;;;;-144.99;59.08;52162.75;5050077;28;19957;-68
2023/09/26 11:31:52;;;;;;;;;;;;;;;-144.99;59.59;52146.44;5044475;28;20390;-69
2023/09/26 11:34:20;;;;;;;;;;;;;;;-144.99;59.36;52146.44;5050879;28;19978;-68
2023/09/26 11:36:48;;;;;;;;;;;;;;;-144.99;59.78;52174.97;5051043;28;20477;-68
2023/09/26 11:39:18;;;;;;;;;;;;;;;-144.99;60.00;52230.00;5063138;23;19979;-72
2023/09/26 11:41:45;;;;;;;;;;;;;;;-144.99;60.19;52195.34;5069058;28;19946;-72
2023/09/26 11:44:12;;;;;;;;;;;;;;;-144.99;60.00;52185.16;5068741;28;19966;-71
2023/09/26 11:46:39;;;;;;;;;;;;;;;-144.99;59.87;52069.00;5069779;28;20449;-71
2023/09/26 11:49:06;;;;;;;;;;;;;;;-144.99;58.57;52060.84;5068912;28;20060;-71
2023/09/26 11:51:32;;;;;;;;;;;;;;;-144.99;57.08;52030.28;5069804;28;20068;-70
2023/09/26 11:53:59;;;;;;;;;;;;;;;-144.99;56.52;52079.19;5069090;28;19990;-71
2023/09/26 11:56:30;;;;;;;;;;;;;;;-144.99;56.09;52069.00;5066330;28;19944;-70
2023/09/26 11:58:57;;;;;;;;;;;;;;;-144.99;56.43;52040.47;5068171;28;20044;-70
2023/09/26 12:01:23;;;;;;;;;;;;;;;-144.99;56.36;52077.16;5070329;28;20031;-70
2023/09/26 12:03:50;;;;;;;;;;;;;;;-144.99;57.25;52101.59;5069239;28;19998;-70
2023/09/26 12:06:16;;;;;;;;;;;;;;;-144.99;56.99;52040.47;5069295;28;19972;-70
2023/09/26 12:08:44;;;;;;;;;;;;;;;-144.99;56.86;52089.38;5065156;28;19944;-70
2023/09/26 12:11:11;;;;;;;;;;;;;;;-144.99;57.40;52160.72;5073049;28;19969;-70
2023/09/26 12:13:38;;;;;;;;;;;;;;;-144.99;57.33;52146.44;5069071;28;20028;-70
2023/09/26 12:16:05;;;;;;;;;;;;;;;-144.99;57.82;52056.78;5068155;28;20045;-69
2023/09/26 12:18:32;;;;;;;;;;;;;;;-144.99;57.60;51979.31;5067836;28;19995;-70
2023/09/26 12:21:00;;;;;;;;;;;;;;;-144.99;56.46;51979.31;5067836;28;20383;-70